Time;durP1;ratioP1;P1;durP2;ratioP2;P2;SDS_P1;SDS_P2;PMS_P1;PMS_P2;Temp;Humidity;BMP_temperature;BMP_pressure;BME280_temperature;BME280_humidity;BME280_pressure;Samples;Min_cycle;Max_cycle;Signal;HPM_P1;HPM_P2
2024/04/02 00:01:09;;;;;;;14.00;12.70;;;;;;;;;;4870599;29;20225;-82
2024/04/02 00:03:34;;;;;;;14.93;13.40;;;;;;;;;;4864905;29;20296;-82
2024/04/02 00:06:00;;;;;;;13.97;12.67;;;;;;;;;;4853194;29;20229;-83
2024/04/02 00:08:28;;;;;;;14.10;12.60;;;;;;;;;;4852150;29;20285;-81
2024/04/02 00:11:01;;;;;;;14.40;12.63;;;;;;;;;;4879357;29;20593;-83
2024/04/02 00:13:34;;;;;;;14.10;12.70;;;;;;;;;;4848742;29;20226;-81
2024/04/02 00:15:59;;;;;;;14.30;12.80;;;;;;;;;;4869376;29;20220;-82
2024/04/02 00:18:25;;;;;;;15.13;13.13;;;;;;;;;;4865264;29;20613;-81
2024/04/02 00:20:53;;;;;;;14.50;13.10;;;;;;;;;;4866858;29;20302;-83
2024/04/02 00:23:19;;;;;;;14.30;12.73;;;;;;;;;;4868037;29;20245;-82
2024/04/02 00:25:45;;;;;;;13.67;12.37;;;;;;;;;;4868140;29;20262;-83
2024/04/02 00:28:13;;;;;;;14.57;13.07;;;;;;;;;;4887353;29;20225;-81
2024/04/02 00:30:41;;;;;;;14.50;12.93;;;;;;;;;;4871564;29;20237;-82
2024/04/02 00:33:10;;;;;;;13.67;12.37;;;;;;;;;;4873276;29;20781;-82
2024/04/02 00:35:35;;;;;;;14.87;12.70;;;;;;;;;;4851696;29;20786;-81
2024/04/02 00:38:01;;;;;;;13.47;12.10;;;;;;;;;;4867936;29;20235;-82
2024/04/02 00:40:27;;;;;;;14.17;12.83;;;;;;;;;;4867054;29;20672;-81
2024/04/02 00:42:54;;;;;;;13.53;12.30;;;;;;;;;;4860483;29;20253;-80
2024/04/02 00:45:22;;;;;;;12.73;11.27;;;;;;;;;;4867653;29;20225;-83
2024/04/02 00:47:48;;;;;;;12.20;11.00;;;;;;;;;;4868812;29;20749;-82
2024/04/02 00:50:13;;;;;;;12.87;11.77;;;;;;;;;;4850782;29;20221;-81
2024/04/02 00:52:39;;;;;;;14.37;10.60;;;;;;;;;;4866716;29;20221;-79
2024/04/02 00:55:07;;;;;;;12.20;11.00;;;;;;;;;;4864915;29;20230;-84
2024/04/02 00:57:37;;;;;;;12.80;11.40;;;;;;;;;;4856290;29;20318;-84
2024/04/02 01:00:06;;;;;;;12.17;10.87;;;;;;;;;;4866822;29;20281;-81
2024/04/02 01:02:36;;;;;;;12.33;11.13;;;;;;;;;;4862868;29;20230;-80
2024/04/02 01:05:06;;;;;;;12.87;11.27;;;;;;;;;;4853786;29;20225;-81
2024/04/02 01:07:31;;;;;;;12.33;10.87;;;;;;;;;;4856189;29;20240;-81
2024/04/02 01:09:57;;;;;;;12.23;10.97;;;;;;;;;;4858546;29;20452;-82
2024/04/02 01:12:25;;;;;;;12.53;11.33;;;;;;;;;;4858597;29;20248;-81
2024/04/02 01:14:50;;;;;;;11.70;10.50;;;;;;;;;;4879799;29;20230;-81
2024/04/02 01:17:17;;;;;;;12.23;11.03;;;;;;;;;;4852507;29;20221;-81
2024/04/02 01:19:42;;;;;;;12.10;10.90;;;;;;;;;;4877092;29;20221;-79
2024/04/02 01:22:08;;;;;;;12.37;11.17;;;;;;;;;;4874041;29;20369;-80
2024/04/02 01:24:35;;;;;;;11.73;10.53;;;;;;;;;;4874915;29;20681;-81
2024/04/02 01:27:02;;;;;;;12.93;11.67;;;;;;;;;;4870113;29;20228;-80
2024/04/02 01:29:28;;;;;;;13.97;12.57;;;;;;;;;;4871779;29;20343;-82
2024/04/02 01:31:56;;;;;;;13.40;12.10;;;;;;;;;;4871506;29;20358;-82
2024/04/02 01:34:21;;;;;;;13.57;12.37;;;;;;;;;;4868009;29;20224;-82
2024/04/02 01:36:49;;;;;;;14.23;12.77;;;;;;;;;;4865864;29;20694;-81
2024/04/02 01:39:15;;;;;;;14.87;13.47;;;;;;;;;;4871637;29;20292;-82
2024/04/02 01:41:40;;;;;;;15.07;13.57;;;;;;;;;;4876301;29;20285;-80
2024/04/02 01:44:06;;;;;;;16.57;14.77;;;;;;;;;;4866695;29;20323;-78
2024/04/02 01:46:34;;;;;;;16.20;14.60;;;;;;;;;;4893493;29;20240;-80
2024/04/02 01:49:02;;;;;;;17.40;15.73;;;;;;;;;;4893487;29;20221;-80
2024/04/02 01:51:29;;;;;;;17.17;15.57;;;;;;;;;;4853269;29;20244;-85
2024/04/02 01:53:57;;;;;;;17.27;15.77;;;;;;;;;;4866305;29;20298;-84
2024/04/02 01:56:23;;;;;;;16.67;15.20;;;;;;;;;;4869856;29;20251;-84
2024/04/02 01:58:48;;;;;;;17.00;15.27;;;;;;;;;;4851890;29;20237;-83
2024/04/02 02:01:14;;;;;;;16.77;15.17;;;;;;;;;;4864059;29;20285;-80
2024/04/02 02:03:42;;;;;;;17.70;16.10;;;;;;;;;;4875252;29;20290;-83
2024/04/02 02:06:10;;;;;;;17.70;16.00;;;;;;;;;;4848568;29;20223;-85
2024/04/02 02:08:40;;;;;;;18.33;16.73;;;;;;;;;;4879898;29;20316;-81
2024/04/02 02:11:06;;;;;;;18.00;16.43;;;;;;;;;;4884469;29;20255;-83
2024/04/02 02:13:38;;;;;;;18.43;16.73;;;;;;;;;;4863590;29;20226;-80
2024/04/02 02:16:06;;;;;;;18.43;16.53;;;;;;;;;;4842939;29;20260;-80
2024/04/02 02:18:31;;;;;;;18.50;16.90;;;;;;;;;;4881263;29;20229;-83
2024/04/02 02:20:59;;;;;;;18.43;16.70;;;;;;;;;;4869688;29;20596;-82
2024/04/02 02:23:27;;;;;;;19.47;17.67;;;;;;;;;;4849631;29;20654;-81
2024/04/02 02:25:58;;;;;;;19.73;17.83;;;;;;;;;;4864479;29;20305;-82
2024/04/02 02:28:23;;;;;;;18.60;16.80;;;;;;;;;;4852180;29;20382;-83
2024/04/02 02:30:56;;;;;;;20.10;17.93;;;;;;;;;;4853724;29;20226;-82
2024/04/02 02:33:22;;;;;;;19.87;17.83;;;;;;;;;;4872890;29;20240;-85
2024/04/02 02:35:55;;;;;;;19.37;17.43;;;;;;;;;;4850158;29;20258;-82
2024/04/02 02:38:21;;;;;;;19.27;17.47;;;;;;;;;;4864585;29;20240;-83
2024/04/02 02:40:46;;;;;;;18.43;16.63;;;;;;;;;;4846881;29;20225;-82
2024/04/02 02:43:12;;;;;;;19.30;17.50;;;;;;;;;;4844343;29;20262;-81
2024/04/02 02:45:37;;;;;;;18.43;16.83;;;;;;;;;;4850707;29;20234;-80
2024/04/02 02:48:05;;;;;;;18.67;17.10;;;;;;;;;;4851737;29;20218;-83
2024/04/02 02:50:31;;;;;;;18.27;16.50;;;;;;;;;;4851605;29;20225;-82
2024/04/02 02:52:59;;;;;;;18.77;16.87;;;;;;;;;;4869937;29;20265;-83
2024/04/02 02:55:26;;;;;;;18.20;16.57;;;;;;;;;;4865540;29;20296;-82
2024/04/02 02:57:54;;;;;;;17.90;16.20;;;;;;;;;;4863829;29;20778;-80
2024/04/02 03:00:22;;;;;;;19.30;17.40;;;;;;;;;;4865059;29;20226;-82
2024/04/02 03:02:50;;;;;;;18.40;16.67;;;;;;;;;;4861616;29;20230;-81
2024/04/02 03:05:15;;;;;;;18.57;16.77;;;;;;;;;;4863891;29;20221;-82
2024/04/02 03:07:41;;;;;;;19.30;17.33;;;;;;;;;;4852990;29;20225;-80
2024/04/02 03:10:06;;;;;;;17.43;15.73;;;;;;;;;;4872454;29;20228;-82
2024/04/02 03:12:34;;;;;;;18.37;16.77;;;;;;;;;;4862838;29;20222;-82
2024/04/02 03:15:02;;;;;;;17.70;15.90;;;;;;;;;;4883872;29;20236;-83
2024/04/02 03:17:28;;;;;;;17.50;15.90;;;;;;;;;;4875651;29;20244;-82
2024/04/02 03:19:53;;;;;;;15.57;14.23;;;;;;;;;;4866838;29;20753;-81
2024/04/02 03:22:19;;;;;;;15.33;13.87;;;;;;;;;;4865940;29;20221;-81
2024/04/02 03:24:47;;;;;;;15.43;13.97;;;;;;;;;;4858685;29;20252;-80
2024/04/02 03:27:12;;;;;;;15.40;13.90;;;;;;;;;;4866218;29;20222;-81
2024/04/02 03:29:41;;;;;;;14.47;13.17;;;;;;;;;;4863729;29;20260;-80
2024/04/02 03:32:07;;;;;;;15.03;13.47;;;;;;;;;;4867386;29;20237;-81
2024/04/02 03:34:32;;;;;;;14.37;13.07;;;;;;;;;;4848420;29;20241;-79
2024/04/02 03:37:02;;;;;;;14.17;12.83;;;;;;;;;;4863754;29;20256;-83
2024/04/02 03:39:27;;;;;;;14.00;12.50;;;;;;;;;;4842402;29;20323;-84
2024/04/02 03:41:58;;;;;;;13.07;11.77;;;;;;;;;;4845167;29;20229;-82
2024/04/02 03:44:28;;;;;;;13.50;12.10;;;;;;;;;;4845185;29;20700;-80
2024/04/02 03:46:55;;;;;;;13.30;12.20;;;;;;;;;;4856355;29;20232;-82
2024/04/02 03:49:23;;;;;;;13.53;12.33;;;;;;;;;;4865622;29;20313;-77
2024/04/02 03:51:51;;;;;;;12.93;11.77;;;;;;;;;;4878083;29;20226;-76
2024/04/02 03:54:16;;;;;;;12.57;11.47;;;;;;;;;;4840924;29;20243;-76
2024/04/02 03:56:44;;;;;;;12.80;11.60;;;;;;;;;;4883650;29;20232;-76
2024/04/02 04:02:59;;;;;;;13.03;11.77;;;;;;;;;;4870532;29;20329;-76
2024/04/02 04:05:25;;;;;;;13.43;12.17;;;;;;;;;;4839238;29;20378;-77
2024/04/02 04:07:51;;;;;;;13.00;11.70;;;;;;;;;;4881971;29;20715;-76
2024/04/02 04:10:21;;;;;;;12.73;11.43;;;;;;;;;;4854636;29;20605;-77
2024/04/02 04:12:47;;;;;;;13.00;11.70;;;;;;;;;;4840096;29;20229;-76
2024/04/02 04:15:12;;;;;;;12.63;11.50;;;;;;;;;;4830125;29;20273;-75
2024/04/02 04:17:38;;;;;;;13.83;10.97;;;;;;;;;;4869080;29;20225;-76
2024/04/02 04:20:04;;;;;;;12.17;11.07;;;;;;;;;;4884112;29;20225;-78
2024/04/02 04:22:32;;;;;;;11.83;10.43;;;;;;;;;;4874100;29;20257;-77
2024/04/02 04:25:00;;;;;;;12.47;11.00;;;;;;;;;;4872097;29;20222;-78
2024/04/02 04:27:31;;;;;;;11.43;10.23;;;;;;;;;;4858365;29;20232;-77
2024/04/02 04:29:59;;;;;;;11.03;10.03;;;;;;;;;;4872207;29;20232;-78
2024/04/02 04:32:27;;;;;;;10.70;9.70;;;;;;;;;;4842386;29;20217;-78
2024/04/02 04:34:52;;;;;;;9.63;8.73;;;;;;;;;;4853374;29;20237;-79
2024/04/02 04:37:18;;;;;;;9.87;8.97;;;;;;;;;;4838120;29;20222;-78
2024/04/02 04:39:44;;;;;;;10.20;8.83;;;;;;;;;;4841438;29;20237;-77
2024/04/02 04:42:09;;;;;;;9.93;8.83;;;;;;;;;;4859623;29;20315;-78
2024/04/02 04:44:37;;;;;;;10.20;9.20;;;;;;;;;;4857333;29;20719;-77
2024/04/02 04:47:03;;;;;;;10.20;9.23;;;;;;;;;;4844450;29;20238;-77
2024/04/02 04:49:30;;;;;;;10.43;9.33;;;;;;;;;;4874271;29;20285;-77
2024/04/02 04:51:58;;;;;;;9.93;8.80;;;;;;;;;;4846301;29;20229;-77
2024/04/02 04:54:26;;;;;;;9.33;8.43;;;;;;;;;;4853035;29;20225;-78
2024/04/02 04:56:55;;;;;;;9.57;8.57;;;;;;;;;;4841955;29;20292;-77
2024/04/02 04:59:23;;;;;;;8.50;7.70;;;;;;;;;;4860440;29;20297;-77
2024/04/02 05:01:49;;;;;;;9.87;8.20;;;;;;;;;;4874109;29;20233;-76
2024/04/02 05:04:14;;;;;;;8.43;7.50;;;;;;;;;;4847276;29;20252;-77
2024/04/02 05:06:42;;;;;;;8.13;7.17;;;;;;;;;;4856678;29;20248;-76
2024/04/02 05:09:11;;;;;;;8.60;7.70;;;;;;;;;;4874103;29;20220;-77
2024/04/02 05:11:39;;;;;;;8.00;7.30;;;;;;;;;;4857379;29;20316;-77
2024/04/02 05:14:04;;;;;;;7.73;6.90;;;;;;;;;;4856884;29;20241;-77
2024/04/02 05:16:34;;;;;;;10.03;7.57;;;;;;;;;;4841947;29;20314;-78
2024/04/02 05:19:02;;;;;;;8.47;6.80;;;;;;;;;;4873381;29;20285;-78
2024/04/02 05:21:30;;;;;;;7.50;6.70;;;;;;;;;;4888976;29;20230;-76
2024/04/02 05:23:58;;;;;;;7.40;6.53;;;;;;;;;;4871365;29;20242;-77
2024/04/02 05:26:24;;;;;;;6.93;6.33;;;;;;;;;;4872988;29;20244;-77
2024/04/02 05:28:52;;;;;;;7.50;6.80;;;;;;;;;;4855943;29;20230;-77
2024/04/02 05:31:24;;;;;;;6.90;6.20;;;;;;;;;;4833230;29;20232;-77
2024/04/02 05:33:50;;;;;;;6.83;6.10;;;;;;;;;;4871611;29;20229;-76
2024/04/02 05:36:15;;;;;;;6.33;5.73;;;;;;;;;;4874006;29;20236;-77
2024/04/02 05:38:46;;;;;;;6.53;5.93;;;;;;;;;;4876235;29;20225;-77
2024/04/02 05:41:14;;;;;;;6.73;5.90;;;;;;;;;;4844089;29;20624;-78
2024/04/02 05:43:39;;;;;;;6.27;5.60;;;;;;;;;;4862295;29;20295;-79
2024/04/02 05:46:05;;;;;;;5.73;5.23;;;;;;;;;;4858032;29;20556;-77
2024/04/02 05:48:31;;;;;;;5.73;5.23;;;;;;;;;;4874823;29;20792;-77
2024/04/02 05:50:59;;;;;;;6.50;5.13;;;;;;;;;;4841598;29;20246;-78
2024/04/02 05:53:24;;;;;;;7.50;5.47;;;;;;;;;;4858078;29;20394;-77
2024/04/02 05:55:52;;;;;;;6.03;5.17;;;;;;;;;;4866728;29;20754;-78
2024/04/02 05:58:20;;;;;;;5.93;5.33;;;;;;;;;;4859747;29;20288;-79
2024/04/02 06:00:45;;;;;;;5.60;5.10;;;;;;;;;;4872721;29;20229;-77
2024/04/02 06:03:15;;;;;;;5.17;4.67;;;;;;;;;;4861897;29;20703;-78
2024/04/02 06:05:43;;;;;;;5.60;5.00;;;;;;;;;;4844366;29;20236;-78
2024/04/02 06:08:08;;;;;;;8.13;4.60;;;;;;;;;;4889032;29;20234;-78
2024/04/02 06:10:38;;;;;;;5.17;4.60;;;;;;;;;;4860152;29;20264;-78
2024/04/02 06:13:04;;;;;;;5.90;4.40;;;;;;;;;;4860155;29;20228;-78
2024/04/02 06:15:29;;;;;;;5.13;4.47;;;;;;;;;;4874357;29;20779;-78
2024/04/02 06:17:55;;;;;;;7.07;4.73;;;;;;;;;;4889252;29;20274;-78
2024/04/02 06:20:21;;;;;;;5.90;4.27;;;;;;;;;;4861029;29;20222;-78
2024/04/02 06:22:46;;;;;;;6.13;4.77;;;;;;;;;;4872825;29;20640;-77
2024/04/02 06:25:15;;;;;;;5.67;4.50;;;;;;;;;;4876115;29;20221;-79
2024/04/02 06:27:41;;;;;;;5.73;4.00;;;;;;;;;;4874486;29;20652;-78
2024/04/02 06:30:07;;;;;;;5.50;4.00;;;;;;;;;;4862827;29;20284;-78
2024/04/02 06:32:32;;;;;;;4.87;3.97;;;;;;;;;;4871810;29;20252;-77
2024/04/02 06:35:00;;;;;;;4.70;4.30;;;;;;;;;;4858306;29;20233;-78
2024/04/02 06:37:28;;;;;;;5.43;4.43;;;;;;;;;;4890648;29;20225;-79
2024/04/02 06:39:53;;;;;;;4.37;3.90;;;;;;;;;;4874599;29;20317;-79
2024/04/02 06:42:19;;;;;;;4.67;3.80;;;;;;;;;;4858875;29;20229;-78
2024/04/02 06:44:47;;;;;;;5.97;4.47;;;;;;;;;;4871028;29;20293;-79
2024/04/02 06:47:14;;;;;;;4.17;3.43;;;;;;;;;;4864594;29;20280;-79
2024/04/02 06:49:40;;;;;;;4.37;3.53;;;;;;;;;;4840760;29;20232;-79
2024/04/02 06:52:08;;;;;;;4.40;3.60;;;;;;;;;;4861939;29;20252;-79
2024/04/02 06:54:34;;;;;;;4.53;3.70;;;;;;;;;;4862830;29;20638;-78
2024/04/02 06:56:59;;;;;;;3.67;3.37;;;;;;;;;;4861564;29;20233;-80
2024/04/02 06:59:25;;;;;;;3.90;3.23;;;;;;;;;;4854613;29;20233;-79
2024/04/02 07:01:50;;;;;;;4.00;3.30;;;;;;;;;;4848464;29;20229;-79
2024/04/02 07:04:16;;;;;;;4.73;3.20;;;;;;;;;;4852587;29;20237;-78
2024/04/02 07:06:44;;;;;;;3.03;2.73;;;;;;;;;;4872782;29;20228;-79
2024/04/02 07:09:12;;;;;;;17.80;13.83;;;;;;;;;;4873541;29;20226;-78
2024/04/02 07:11:40;;;;;;;9.30;7.03;;;;;;;;;;4845396;29;20281;-77
2024/04/02 07:14:05;;;;;;;10.93;8.53;;;;;;;;;;4876115;29;20323;-78
2024/04/02 07:16:31;;;;;;;4.23;2.90;;;;;;;;;;4858026;29;20232;-79
2024/04/02 07:18:56;;;;;;;3.60;2.40;;;;;;;;;;4861364;29;20230;-79
2024/04/02 07:21:22;;;;;;;3.77;2.90;;;;;;;;;;4856111;29;20228;-80
2024/04/02 07:23:47;;;;;;;4.23;2.50;;;;;;;;;;4860021;29;20230;-78
2024/04/02 07:26:13;;;;;;;3.07;2.40;;;;;;;;;;4860482;29;20220;-79
2024/04/02 07:28:39;;;;;;;6.17;2.83;;;;;;;;;;4860895;29;20237;-79
2024/04/02 07:31:07;;;;;;;4.33;2.50;;;;;;;;;;4877870;29;20659;-79
2024/04/02 07:33:35;;;;;;;2.90;2.70;;;;;;;;;;4864020;29;20263;-80
2024/04/02 07:36:04;;;;;;;3.17;2.80;;;;;;;;;;4844050;29;20324;-80
2024/04/02 07:38:29;;;;;;;3.90;2.80;;;;;;;;;;4855955;29;20229;-79
2024/04/02 07:40:55;;;;;;;3.03;2.47;;;;;;;;;;4828671;29;20824;-77
2024/04/02 07:43:23;;;;;;;3.17;2.73;;;;;;;;;;4859052;29;21699;-79
2024/04/02 07:45:52;;;;;;;3.30;2.67;;;;;;;;;;4878277;29;20257;-80
2024/04/02 07:48:20;;;;;;;2.87;2.60;;;;;;;;;;4865188;29;20224;-77
2024/04/02 07:50:46;;;;;;;3.20;2.80;;;;;;;;;;4841330;29;20232;-78
2024/04/02 07:53:12;;;;;;;3.90;2.60;;;;;;;;;;4850300;29;20229;-79
2024/04/02 07:55:37;;;;;;;5.03;3.27;;;;;;;;;;4843285;29;20222;-79
2024/04/02 07:58:03;;;;;;;3.10;2.80;;;;;;;;;;4876475;29;20281;-79
2024/04/02 08:00:29;;;;;;;3.93;2.60;;;;;;;;;;4814435;29;20241;-81
2024/04/02 08:02:57;;;;;;;3.40;2.57;;;;;;;;;;4860670;29;20229;-78
2024/04/02 08:05:28;;;;;;;4.33;2.53;;;;;;;;;;4860581;29;21448;-79
2024/04/02 08:07:53;;;;;;;4.90;2.60;;;;;;;;;;4861025;29;20233;-81
2024/04/02 08:10:19;;;;;;;2.80;2.43;;;;;;;;;;4850501;29;20229;-80
2024/04/02 08:12:44;;;;;;;2.90;2.50;;;;;;;;;;4876231;29;20229;-77
2024/04/02 08:15:14;;;;;;;3.50;2.20;;;;;;;;;;4866139;29;20229;-79
2024/04/02 08:17:40;;;;;;;3.63;2.30;;;;;;;;;;4861178;29;20242;-77
2024/04/02 08:20:08;;;;;;;3.80;2.30;;;;;;;;;;4846474;29;20704;-77
2024/04/02 08:22:34;;;;;;;3.53;2.33;;;;;;;;;;4849264;29;20241;-80
2024/04/02 08:25:01;;;;;;;2.77;2.23;;;;;;;;;;4848065;29;20245;-80
2024/04/02 08:27:29;;;;;;;3.03;2.10;;;;;;;;;;4841679;29;20240;-80
2024/04/02 08:29:54;;;;;;;3.77;2.20;;;;;;;;;;4847187;29;20237;-76
2024/04/02 08:32:22;;;;;;;3.60;2.13;;;;;;;;;;4862511;29;20237;-79
2024/04/02 08:34:52;;;;;;;3.17;2.10;;;;;;;;;;4860915;29;20241;-78
2024/04/02 08:37:18;;;;;;;3.20;2.30;;;;;;;;;;4863956;29;20307;-79
2024/04/02 08:39:46;;;;;;;2.40;2.20;;;;;;;;;;4830425;29;20225;-79
2024/04/02 08:42:11;;;;;;;3.27;2.30;;;;;;;;;;4863362;29;20240;-80
2024/04/02 08:44:37;;;;;;;3.50;2.07;;;;;;;;;;4862974;29;20245;-78
2024/04/02 08:47:03;;;;;;;5.77;2.20;;;;;;;;;;4863783;29;20285;-77
2024/04/02 08:49:32;;;;;;;4.07;2.20;;;;;;;;;;4846871;29;20225;-78
2024/04/02 08:51:59;;;;;;;6.77;2.30;;;;;;;;;;4853803;29;20237;-79
2024/04/02 08:54:26;;;;;;;2.70;1.80;;;;;;;;;;4841462;29;20226;-81
2024/04/02 08:56:54;;;;;;;2.77;1.90;;;;;;;;;;4865320;29;20284;-80
2024/04/02 08:59:22;;;;;;;3.10;1.87;;;;;;;;;;4865122;29;20727;-80
2024/04/02 09:01:48;;;;;;;4.47;2.17;;;;;;;;;;4848189;29;20261;-79
2024/04/02 09:04:13;;;;;;;3.60;1.80;;;;;;;;;;4861420;29;20239;-81
2024/04/02 09:06:39;;;;;;;4.30;2.00;;;;;;;;;;4871106;29;20233;-78
2024/04/02 09:09:05;;;;;;;4.03;2.00;;;;;;;;;;4869625;29;20247;-79
2024/04/02 09:11:30;;;;;;;2.17;1.90;;;;;;;;;;4882534;29;20825;-78
2024/04/02 09:13:59;;;;;;;4.83;1.90;;;;;;;;;;4868885;29;20228;-79
2024/04/02 09:16:33;;;;;;;4.73;2.00;;;;;;;;;;4868817;29;20221;-78
2024/04/02 09:19:01;;;;;;;3.60;1.87;;;;;;;;;;4880310;29;20324;-80
2024/04/02 09:21:29;;;;;;;2.37;1.70;;;;;;;;;;4834169;29;20218;-81
2024/04/02 09:23:57;;;;;;;2.57;1.80;;;;;;;;;;4861790;29;20242;-78
2024/04/02 09:26:25;;;;;;;3.43;1.87;;;;;;;;;;4865961;29;20229;-80
2024/04/02 09:28:51;;;;;;;2.53;1.50;;;;;;;;;;4864909;29;20387;-77
2024/04/02 09:31:16;;;;;;;2.73;1.50;;;;;;;;;;4862821;29;20245;-78
2024/04/02 09:33:45;;;;;;;2.10;1.60;;;;;;;;;;4859084;29;20236;-82
2024/04/02 09:36:37;;;;;;;4.50;1.80;;;;;;;;;;4858565;29;20489;-79
2024/04/02 09:39:06;;;;;;;3.50;1.90;;;;;;;;;;4861338;29;20238;-80
2024/04/02 09:41:32;;;;;;;3.67;1.60;;;;;;;;;;4862317;29;20236;-76
2024/04/02 09:43:59;;;;;;;5.00;1.80;;;;;;;;;;4877575;29;20317;-77
2024/04/02 09:46:25;;;;;;;4.87;1.93;;;;;;;;;;4834855;29;20321;-78
2024/04/02 09:48:52;;;;;;;3.20;1.87;;;;;;;;;;4854932;29;20303;-77
2024/04/02 09:51:20;;;;;;;2.97;1.80;;;;;;;;;;4857704;29;20214;-78
2024/04/02 09:53:48;;;;;;;2.83;1.77;;;;;;;;;;4859259;29;20723;-77
2024/04/02 09:56:17;;;;;;;3.07;1.67;;;;;;;;;;4858766;29;20289;-80
2024/04/02 09:58:48;;;;;;;3.60;1.70;;;;;;;;;;4843484;29;20281;-78
2024/04/02 10:01:14;;;;;;;3.23;1.60;;;;;;;;;;4827770;29;20241;-78
2024/04/02 10:03:46;;;;;;;5.57;1.80;;;;;;;;;;4859856;29;20229;-78
2024/04/02 10:06:12;;;;;;;3.70;1.70;;;;;;;;;;4845220;29;20233;-78
2024/04/02 10:08:38;;;;;;;2.57;1.60;;;;;;;;;;4862871;29;20800;-80
2024/04/02 10:11:06;;;;;;;3.90;1.80;;;;;;;;;;4862165;29;20798;-78
2024/04/02 10:13:36;;;;;;;3.53;1.80;;;;;;;;;;4876171;29;20256;-77
2024/04/02 10:16:11;;;;;;;3.47;1.70;;;;;;;;;;4874400;29;20645;-80
2024/04/02 10:18:44;;;;;;;2.80;1.90;;;;;;;;;;4859915;29;20274;-78
2024/04/02 10:21:11;;;;;;;3.03;1.90;;;;;;;;;;4843275;29;20828;-78
2024/04/02 10:23:38;;;;;;;3.77;1.83;;;;;;;;;;4861561;29;20233;-79
2024/04/02 10:26:09;;;;;;;2.57;1.70;;;;;;;;;;4873621;29;20332;-77
2024/04/02 10:28:35;;;;;;;4.33;1.90;;;;;;;;;;4845566;29;20233;-77
2024/04/02 10:31:01;;;;;;;2.20;1.40;;;;;;;;;;4873716;29;20234;-79
2024/04/02 10:33:28;;;;;;;3.13;1.90;;;;;;;;;;4848908;29;20221;-80
2024/04/02 10:35:58;;;;;;;4.80;1.70;;;;;;;;;;4861396;29;20229;-78
2024/04/02 10:38:23;;;;;;;2.77;1.60;;;;;;;;;;4875381;29;20301;-77
2024/04/02 10:40:49;;;;;;;4.50;1.93;;;;;;;;;;4877145;29;20221;-78
2024/04/02 10:43:15;;;;;;;2.60;1.73;;;;;;;;;;4844779;29;20264;-77
2024/04/02 10:45:42;;;;;;;2.80;2.00;;;;;;;;;;4845259;29;20590;-77
2024/04/02 10:48:10;;;;;;;3.20;1.70;;;;;;;;;;4875251;29;20440;-76
2024/04/02 10:50:36;;;;;;;4.67;2.20;;;;;;;;;;4858635;29;20229;-77
2024/04/02 10:53:02;;;;;;;4.67;2.23;;;;;;;;;;4847592;29;20217;-76
2024/04/02 10:55:28;;;;;;;4.37;2.23;;;;;;;;;;4887249;29;20221;-77
2024/04/02 10:57:53;;;;;;;3.73;2.33;;;;;;;;;;4851628;29;20978;-77
2024/04/02 11:00:21;;;;;;;3.63;2.17;;;;;;;;;;4859119;29;20293;-77
2024/04/02 11:02:47;;;;;;;5.07;2.53;;;;;;;;;;4858684;29;20234;-77
2024/04/02 11:05:19;;;;;;;4.27;2.27;;;;;;;;;;4858210;29;20312;-77
2024/04/02 11:07:45;;;;;;;4.30;2.60;;;;;;;;;;4857248;29;20237;-77
2024/04/02 11:10:11;;;;;;;4.73;2.80;;;;;;;;;;4861539;29;20317;-79
2024/04/02 11:12:37;;;;;;;3.93;2.20;;;;;;;;;;4863193;29;20292;-77
2024/04/02 11:15:02;;;;;;;4.17;2.43;;;;;;;;;;4836873;29;20894;-76
2024/04/02 11:17:28;;;;;;;4.47;2.40;;;;;;;;;;4821725;29;20355;-78
2024/04/02 11:19:56;;;;;;;3.47;2.40;;;;;;;;;;4843897;29;20275;-76
2024/04/02 11:25:13;;;;;;;2.90;1.90;;;;;;;;;;4863329;29;20249;-76
2024/04/02 11:27:39;;;;;;;4.27;2.00;;;;;;;;;;4872968;29;20763;-77
2024/04/02 11:30:05;;;;;;;4.73;2.20;;;;;;;;;;4859177;29;20233;-77
2024/04/02 11:32:33;;;;;;;2.73;2.00;;;;;;;;;;4833802;29;20261;-78
2024/04/02 11:35:00;;;;;;;5.13;2.50;;;;;;;;;;4873191;29;20865;-77
2024/04/02 11:37:29;;;;;;;5.37;2.63;;;;;;;;;;4869446;29;20229;-77
2024/04/02 11:39:55;;;;;;;3.67;2.27;;;;;;;;;;4843994;29;20230;-76
2024/04/02 11:42:25;;;;;;;4.90;2.40;;;;;;;;;;4865531;29;20297;-79
2024/04/02 11:44:52;;;;;;;3.87;1.73;;;;;;;;;;4845602;29;20654;-77
2024/04/02 11:47:19;;;;;;;3.87;1.93;;;;;;;;;;4843841;29;20708;-78
2024/04/02 11:49:48;;;;;;;4.43;2.37;;;;;;;;;;4869790;29;20237;-77
2024/04/02 11:52:16;;;;;;;4.43;2.00;;;;;;;;;;4861430;29;20229;-77
2024/04/02 11:54:42;;;;;;;6.53;2.90;;;;;;;;;;4864010;29;20225;-77
2024/04/02 12:00:11;;;;;;;5.03;2.30;;;;;;;;;;4878686;29;20225;-78
2024/04/02 12:02:44;;;;;;;5.17;2.33;;;;;;;;;;4854193;29;20864;-78
2024/04/02 12:05:12;;;;;;;4.00;2.07;;;;;;;;;;4849734;29;20652;-79
2024/04/02 12:07:38;;;;;;;3.77;2.07;;;;;;;;;;4857212;29;20239;-79
2024/04/02 12:10:07;;;;;;;3.07;1.70;;;;;;;;;;4845641;29;20229;-78
2024/04/02 12:12:33;;;;;;;4.63;2.03;;;;;;;;;;4844477;29;20336;-77
2024/04/02 12:15:02;;;;;;;2.70;1.87;;;;;;;;;;4864409;29;20759;-77
2024/04/02 12:17:30;;;;;;;8.50;7.20;;;;;;;;;;4848143;29;20226;-78
2024/04/02 12:19:57;;;;;;;5.13;3.30;;;;;;;;;;4890258;29;20222;-79
2024/04/02 12:22:28;;;;;;;3.00;1.80;;;;;;;;;;4894966;29;20244;-77
2024/04/02 12:24:54;;;;;;;4.40;2.47;;;;;;;;;;4892467;29;20233;-78
2024/04/02 12:27:23;;;;;;;5.63;3.77;;;;;;;;;;4876543;29;20230;-78
2024/04/02 12:29:58;;;;;;;4.47;2.10;;;;;;;;;;4878034;29;20266;-76
2024/04/02 12:32:25;;;;;;;5.03;2.17;;;;;;;;;;4850454;29;20226;-77
2024/04/02 12:34:50;;;;;;;3.93;1.70;;;;;;;;;;4863098;29;20253;-76
2024/04/02 12:37:19;;;;;;;2.90;1.60;;;;;;;;;;4862406;29;20233;-78
2024/04/02 12:39:46;;;;;;;3.40;1.50;;;;;;;;;;4862873;29;20333;-78
2024/04/02 12:42:16;;;;;;;4.30;1.77;;;;;;;;;;4863953;29;20221;-77
2024/04/02 12:44:42;;;;;;;5.20;1.77;;;;;;;;;;4850366;29;20289;-78
2024/04/02 12:47:07;;;;;;;4.20;1.77;;;;;;;;;;4862897;29;20601;-79
2024/04/02 12:49:36;;;;;;;13.80;9.03;;;;;;;;;;4864782;29;20264;-79
2024/04/02 12:52:07;;;;;;;7.27;5.87;;;;;;;;;;4861825;29;20233;-79
2024/04/02 12:54:37;;;;;;;9.93;4.93;;;;;;;;;;4857890;29;20225;-77
2024/04/02 12:57:09;;;;;;;4.07;2.10;;;;;;;;;;4861100;29;20252;-79
2024/04/02 12:59:37;;;;;;;3.93;1.90;;;;;;;;;;4871670;29;20271;-78
2024/04/02 13:02:03;;;;;;;5.03;2.20;;;;;;;;;;4872542;29;20347;-78
2024/04/02 13:04:28;;;;;;;5.33;2.40;;;;;;;;;;4861192;29;20623;-78
2024/04/02 13:06:56;;;;;;;8.53;2.90;;;;;;;;;;4861044;29;20226;-79
2024/04/02 13:09:21;;;;;;;4.23;2.00;;;;;;;;;;4843614;29;20229;-78
2024/04/02 13:11:49;;;;;;;8.20;2.40;;;;;;;;;;4876054;29;20225;-77
2024/04/02 13:14:17;;;;;;;3.90;2.33;;;;;;;;;;4859337;29;20229;-77
2024/04/02 13:16:45;;;;;;;6.90;1.97;;;;;;;;;;4846137;29;20230;-78
2024/04/02 13:19:11;;;;;;;3.93;1.60;;;;;;;;;;4858508;29;20236;-77
2024/04/02 13:21:39;;;;;;;7.30;2.70;;;;;;;;;;4862928;29;20229;-78
2024/04/02 13:24:05;;;;;;;4.30;2.10;;;;;;;;;;4862563;29;20241;-78
2024/04/02 13:26:33;;;;;;;4.03;1.90;;;;;;;;;;4846845;29;20249;-78
2024/04/02 13:29:01;;;;;;;4.43;2.03;;;;;;;;;;4889301;29;20722;-79
2024/04/02 13:31:28;;;;;;;3.77;1.97;;;;;;;;;;4858706;29;20319;-77
2024/04/02 13:33:56;;;;;;;5.30;1.93;;;;;;;;;;4857755;29;20233;-76
2024/04/02 13:36:22;;;;;;;4.87;1.93;;;;;;;;;;4853348;29;20272;-77
2024/04/02 13:38:49;;;;;;;5.93;1.97;;;;;;;;;;4870358;29;20323;-76
2024/04/02 13:41:15;;;;;;;3.50;1.70;;;;;;;;;;4866118;29;20229;-77
2024/04/02 13:43:43;;;;;;;4.80;2.70;;;;;;;;;;4863921;29;20236;-75
2024/04/02 13:46:15;;;;;;;7.13;3.73;;;;;;;;;;4880120;29;20218;-75
2024/04/02 13:48:41;;;;;;;5.13;2.30;;;;;;;;;;4894386;29;20244;-77
2024/04/02 13:51:14;;;;;;;4.53;2.07;;;;;;;;;;4858883;29;20221;-77
2024/04/02 13:53:43;;;;;;;4.27;2.20;;;;;;;;;;4861578;29;20874;-76
2024/04/02 13:56:12;;;;;;;3.77;1.70;;;;;;;;;;4860323;29;20237;-76
2024/04/02 13:58:38;;;;;;;4.13;1.83;;;;;;;;;;4874403;29;20225;-78
2024/04/02 14:01:07;;;;;;;4.50;1.90;;;;;;;;;;4860938;29;20222;-75
2024/04/02 14:03:36;;;;;;;4.90;1.70;;;;;;;;;;4842596;29;20341;-76
2024/04/02 14:06:03;;;;;;;5.17;1.73;;;;;;;;;;4854021;29;20232;-75
2024/04/02 14:08:29;;;;;;;5.40;2.00;;;;;;;;;;4837340;29;20241;-76
2024/04/02 14:10:55;;;;;;;3.13;1.30;;;;;;;;;;4843341;29;20228;-77
2024/04/02 14:13:22;;;;;;;6.27;3.03;;;;;;;;;;4859815;29;20684;-79
2024/04/02 14:15:48;;;;;;;4.00;1.67;;;;;;;;;;4874092;29;20225;-76
2024/04/02 14:18:15;;;;;;;4.30;1.80;;;;;;;;;;4858286;29;20616;-77
2024/04/02 14:21:06;;;;;;;3.93;1.60;;;;;;;;;;4873058;29;20253;-77
2024/04/02 14:23:37;;;;;;;3.17;1.40;;;;;;;;;;4862175;29;20332;-77
2024/04/02 14:26:03;;;;;;;2.83;1.40;;;;;;;;;;4861444;29;20730;-77
2024/04/02 14:28:29;;;;;;;4.07;1.73;;;;;;;;;;4846181;29;20318;-79
2024/04/02 14:30:56;;;;;;;8.27;2.67;;;;;;;;;;4850315;29;20322;-77
2024/04/02 14:33:24;;;;;;;2.73;1.50;;;;;;;;;;4863746;29;20249;-77
2024/04/02 14:35:49;;;;;;;4.43;2.70;;;;;;;;;;4843383;29;20271;-77
2024/04/02 14:38:15;;;;;;;4.60;2.77;;;;;;;;;;4877410;29;20296;-77
2024/04/02 14:40:42;;;;;;;4.33;1.70;;;;;;;;;;4875646;29;20381;-79
2024/04/02 14:43:07;;;;;;;4.00;2.50;;;;;;;;;;4858456;29;20235;-77
2024/04/02 14:45:36;;;;;;;5.50;2.03;;;;;;;;;;4857931;29;20833;-77